Sakaide Maru — 3EYR6 — position and weather

sailwx.info

Track history (hours):
 
Tides and Currents Weather Stations Pressure Air Temp Water Temp Dewpoint Dewpoint Depression Visibility Wind Speed Wind Dir Waves Ship Positions

Sakaide Maru

Last reported at 2014-Sep-11 10:28 UTC. Time now 2014-Sep-22 22:18 UTC.
Position N 35°40' E 141°35'.
Warning: this ship's position is 11 days out of date.

Length 255 m; draft 8.6 m.

Type: Cargo ship. MMSI: 354898000.

Date/timePositionNaut miles runAvg speedWind from/ knotsBaromVisibWave heightAir tempDewpointWater temp
2014-Sep-11 10:28N 35°40' E 141°35'8915.0
2014-Sep-11 04:31N 34°36' E 140°19'26912.2
2014-Sep-10 06:30N 33°52' E 134°57'1212.6
2014-Sep-10 05:33N 34°04' E 134°57'1412.7
2014-Sep-10 04:26N 34°18' E 134°59'1213.8
2014-Sep-10 03:33N 34°30' E 135°04'8 7.8
2014-Sep-10 02:33N 34°37' E 135°01'1312.7
2014-Sep-10 01:33N 34°33' E 134°46'  
2014-Sep-05 22:04N 34°33' E 134°46'612.6
2014-Sep-05 21:33N 34°35' E 134°53'1111.1
2014-Sep-05 20:33N 34°35' E 135°07'7 7.2
2014-Sep-05 19:33N 34°28' E 135°06'1211.9
2014-Sep-05 18:33N 34°18' E 134°59'1111.0
2014-Sep-05 17:33N 34°07' E 134°60'1211.5
2014-Sep-05 16:33N 33°55' E 134°58'  
Track history (hours):
 
Tides and Currents Weather Stations Pressure Air Temp Water Temp Dewpoint Dewpoint Depression Visibility Wind Speed Wind Dir Waves Ship Positions

Sakaide Maru

Last reported at 2014-Sep-11 10:28 UTC. Time now 2014-Sep-22 22:18 UTC.
Position N 35°40' E 141°35'.
Warning: this ship's position is 11 days out of date.

Length 255 m; draft 8.6 m.

Type: Cargo ship. MMSI: 354898000.

Date/timePositionNaut miles runAvg speedWind from/ knotsBaromVisibWave heightAir tempDewpointWater temp
2014-Sep-11 10:28N 35°40' E 141°35'8915.0
2014-Sep-11 04:31N 34°36' E 140°19'26912.2
2014-Sep-10 06:30N 33°52' E 134°57'1212.6
2014-Sep-10 05:33N 34°04' E 134°57'1412.7
2014-Sep-10 04:26N 34°18' E 134°59'1213.8
2014-Sep-10 03:33N 34°30' E 135°04'8 7.8
2014-Sep-10 02:33N 34°37' E 135°01'1312.7
2014-Sep-10 01:33N 34°33' E 134°46'  
2014-Sep-05 22:04N 34°33' E 134°46'612.6
2014-Sep-05 21:33N 34°35' E 134°53'1111.1
2014-Sep-05 20:33N 34°35' E 135°07'7 7.2
2014-Sep-05 19:33N 34°28' E 135°06'1211.9
2014-Sep-05 18:33N 34°18' E 134°59'1111.0
2014-Sep-05 17:33N 34°07' E 134°60'1211.5
2014-Sep-05 16:33N 33°55' E 134°58'  

Dump ship's entire track history